Time;durP1;ratioP1;P1;durP2;ratioP2;P2;SDS_P1;SDS_P2;PMS_P1;PMS_P2;Temp;Humidity;BMP_temperature;BMP_pressure;BME280_temperature;BME280_humidity;BME280_pressure;Samples;Min_cycle;Max_cycle;Signal;HPM_P1;HPM_P2
2023/03/23 00:02:22;;;;;;;10.18;6.43;;;;;;;5.24;77.80;94767.06;5095686;28;20027;-84
2023/03/23 00:04:48;;;;;;;11.18;7.65;;;;;;;4.89;77.93;94749.47;5128479;27;20044;-83
2023/03/23 00:07:20;;;;;;;10.30;7.43;;;;;;;5.06;78.08;94758.72;5146434;27;20024;-83
2023/03/23 00:09:46;;;;;;;11.60;7.22;;;;;;;5.11;77.75;94758.44;5112111;28;20520;-84
2023/03/23 00:12:15;;;;;;;10.95;7.97;;;;;;;4.84;77.56;94772.06;5128899;27;20029;-83
2023/03/23 00:14:40;;;;;;;15.00;12.55;;;;;;;4.76;77.91;94769.13;5128753;27;20055;-83
2023/03/23 00:17:10;;;;;;;20.20;14.52;;;;;;;4.76;78.51;94766.56;5111842;28;20033;-83
2023/03/23 00:19:47;;;;;;;20.73;13.43;;;;;;;4.81;78.44;94776.59;5112027;28;20093;-83
2023/03/23 00:22:14;;;;;;;18.35;12.88;;;;;;;4.77;78.40;94780.28;5096167;28;20039;-83
2023/03/23 00:24:39;;;;;;;13.70;10.35;;;;;;;4.71;78.46;94784.06;5111561;28;20037;-84
2023/03/23 00:27:05;;;;;;;14.30;9.15;;;;;;;4.80;77.04;94780.91;5128767;27;20024;-82
2023/03/23 00:29:31;;;;;;;12.60;8.50;;;;;;;4.74;77.02;94785.63;5128813;27;20048;-84
2023/03/23 00:31:57;;;;;;;9.95;7.57;;;;;;;4.48;77.67;94782.84;5111769;28;20027;-84
2023/03/23 00:34:24;;;;;;;10.98;7.25;;;;;;;4.34;77.34;94769.97;5128713;27;20031;-84
2023/03/23 00:36:56;;;;;;;9.70;7.53;;;;;;;4.42;77.25;94796.06;5111487;28;20401;-84
2023/03/23 00:39:24;;;;;;;9.20;7.07;;;;;;;4.42;76.43;94801.22;5095134;28;20083;-84
2023/03/23 00:41:49;;;;;;;9.40;7.13;;;;;;;4.24;76.99;94800.56;5111478;28;20020;-84
2023/03/23 00:44:16;;;;;;;12.27;8.27;;;;;;;4.10;77.75;94808.25;5109053;28;20039;-84
2023/03/23 00:46:46;;;;;;;11.73;9.00;;;;;;;4.07;78.52;94810.97;5107779;28;20032;-83
2023/03/23 00:49:12;;;;;;;12.82;8.43;;;;;;;3.96;79.05;94815.00;5125591;27;20196;-84
2023/03/23 00:51:38;;;;;;;10.50;8.35;;;;;;;4.00;79.11;94816.47;5108229;28;20036;-83
2023/03/23 00:54:04;;;;;;;11.85;7.82;;;;;;;4.03;79.12;94795.72;5090791;28;20055;-84
2023/03/23 00:56:30;;;;;;;12.65;9.05;;;;;;;4.19;79.33;94810.28;5091015;28;20576;-82
2023/03/23 00:58:55;;;;;;;11.98;8.50;;;;;;;4.12;79.92;94812.34;5107885;28;20478;-84
2023/03/23 01:01:20;;;;;;;11.63;8.82;;;;;;;4.27;78.92;94817.56;5125155;27;20020;-84
2023/03/23 01:03:46;;;;;;;12.18;8.20;;;;;;;3.96;79.21;94773.03;5073471;28;20051;-83
2023/03/23 01:06:12;;;;;;;11.68;8.70;;;;;;;4.36;78.92;94815.25;5091228;28;20485;-83
2023/03/23 01:08:44;;;;;;;11.70;9.00;;;;;;;4.33;78.92;94812.88;5107690;28;20402;-83
2023/03/23 01:11:15;;;;;;;15.57;9.80;;;;;;;4.17;79.77;94791.53;5106744;28;20044;-83
2023/03/23 01:13:42;;;;;;;12.98;9.30;;;;;;;4.35;80.17;94805.06;5107412;28;20028;-84
2023/03/23 01:16:08;;;;;;;11.80;8.25;;;;;;;4.48;80.70;94809.41;5106472;28;20031;-83
2023/03/23 01:18:33;;;;;;;10.80;7.68;;;;;;;4.61;80.81;94799.22;5090061;28;20032;-83
2023/03/23 01:21:04;;;;;;;13.57;7.88;;;;;;;4.65;80.91;94792.97;5090551;28;20324;-84
2023/03/23 01:23:30;;;;;;;11.35;7.82;;;;;;;4.78;81.08;94798.19;5107581;28;20032;-83
2023/03/23 01:25:57;;;;;;;12.15;7.68;;;;;;;4.81;81.18;94792.84;5090041;28;20097;-82
2023/03/23 01:28:23;;;;;;;13.18;8.18;;;;;;;4.84;81.27;94789.28;5106961;28;20020;-83
2023/03/23 01:30:48;;;;;;;10.93;7.00;;;;;;;4.96;81.15;94793.69;5107037;28;20032;-84
2023/03/23 01:33:14;;;;;;;10.38;7.55;;;;;;;4.85;81.18;94768.59;5073313;28;20081;-84
2023/03/23 01:35:39;;;;;;;11.43;7.95;;;;;;;4.92;80.81;94758.75;5106947;28;20036;-84
2023/03/23 01:38:05;;;;;;;9.75;7.10;;;;;;;5.11;80.48;94779.88;5107279;28;20539;-82
2023/03/23 01:40:30;;;;;;;11.25;7.63;;;;;;;5.10;80.23;94777.41;5073470;28;20070;-84
2023/03/23 01:42:56;;;;;;;11.23;8.00;;;;;;;5.18;79.43;94770.00;5107020;28;20028;-84
2023/03/23 01:45:34;;;;;;;8.70;6.85;;;;;;;5.27;78.67;94779.75;5135955;27;20178;-84
2023/03/23 01:48:18;;;;;;;9.80;6.72;;;;;;;5.21;78.26;94774.97;5127277;27;20042;-84
2023/03/23 01:51:09;;;;;;;10.40;6.78;;;;;;;5.18;78.21;94771.75;5111575;28;20043;-83
2023/03/23 01:53:55;;;;;;;10.75;6.97;;;;;;;5.17;78.19;94768.34;5127575;27;20082;-84
2023/03/23 01:56:24;;;;;;;8.82;6.28;;;;;;;5.20;78.22;94769.91;5110254;28;20080;-83
2023/03/23 01:58:50;;;;;;;10.82;6.85;;;;;;;5.09;78.00;94744.81;5126963;28;20084;-84
2023/03/23 02:01:16;;;;;;;12.52;7.72;;;;;;;5.14;78.25;94768.53;5144579;27;20028;-83
2023/03/23 02:03:43;;;;;;;13.23;7.63;;;;;;;5.08;78.48;94762.03;5110149;28;20031;-84
2023/03/23 02:06:09;;;;;;;12.38;7.65;;;;;;;5.19;78.61;94769.09;5127409;28;20048;-83
2023/03/23 02:08:34;;;;;;;11.23;7.53;;;;;;;5.03;78.53;94745.22;5110177;28;20074;-84
2023/03/23 02:11:00;;;;;;;11.85;7.50;;;;;;;5.06;78.42;94757.91;5110159;28;20169;-83
2023/03/23 02:13:26;;;;;;;13.15;7.97;;;;;;;4.89;78.34;94728.88;5127219;28;20015;-84
2023/03/23 02:15:55;;;;;;;11.73;7.82;;;;;;;5.14;78.73;94769.38;5109972;28;20039;-84
2023/03/23 02:18:40;;;;;;;12.15;8.38;;;;;;;5.06;79.25;94770.78;5110038;28;20024;-84
2023/03/23 02:21:39;;;;;;;18.77;11.07;;;;;;;5.07;79.89;94756.97;5143774;27;20409;-83
2023/03/23 02:24:10;;;;;;;17.80;12.02;;;;;;;5.25;80.16;94776.44;5139253;27;20015;-83
2023/03/23 02:26:36;;;;;;;;;;;;;;;5.26;80.15;94775.50;5110542;28;20121;-83
2023/03/23 02:29:43;;;;;;;13.43;8.32;;;;;;;5.15;79.79;94767.63;5113166;28;19927;-84
2023/03/23 02:32:27;;;;;;;15.93;10.15;;;;;;;5.12;80.10;94765.22;5113909;28;20130;-83
2023/03/23 02:35:08;;;;;;;19.63;12.43;;;;;;;5.19;80.42;94766.53;5113902;28;20126;-84
2023/03/23 02:37:36;;;;;;;17.80;11.50;;;;;;;5.20;80.49;94770.75;5113719;28;20032;-83
2023/03/23 02:40:13;;;;;;;21.15;11.25;;;;;;;5.25;80.66;94781.59;5130995;27;20481;-84
2023/03/23 02:42:40;;;;;;;15.75;10.20;;;;;;;5.27;80.55;94772.03;5130451;27;20052;-84
2023/03/23 02:45:07;;;;;;;18.70;11.75;;;;;;;5.11;80.50;94740.41;5121676;27;20107;-84
2023/03/23 02:47:32;;;;;;;18.63;11.13;;;;;;;5.31;80.02;94781.19;5093208;28;20119;-84
2023/03/23 02:49:58;;;;;;;16.40;10.85;;;;;;;5.07;80.28;94746.66;5110559;28;20402;-84
2023/03/23 02:52:26;;;;;;;19.90;12.45;;;;;;;5.43;79.66;94789.06;5127074;27;20036;-83
2023/03/23 02:54:52;;;;;;;18.77;11.98;;;;;;;5.45;79.69;94792.38;5110117;28;20065;-84
2023/03/23 02:57:18;;;;;;;21.48;13.77;;;;;;;5.36;80.29;94776.59;5093067;28;20037;-83
2023/03/23 02:59:44;;;;;;;24.50;15.15;;;;;;;5.30;80.26;94779.56;5127304;27;20021;-83
2023/03/23 03:02:21;;;;;;;24.90;16.35;;;;;;;5.26;80.87;94780.66;5093028;28;20123;-82
2023/03/23 03:05:18;;;;;;;25.55;16.33;;;;;;;5.30;80.63;94807.06;5108917;28;20075;-83
2023/03/23 03:08:01;;;;;;;25.25;16.20;;;;;;;5.31;80.08;94814.69;5066745;28;20510;-84
2023/03/23 03:10:42;;;;;;;24.17;16.40;;;;;;;5.30;79.42;94813.03;5126732;27;20085;-84
2023/03/23 03:13:12;;;;;;;21.38;14.25;;;;;;;5.29;78.74;94813.97;5109068;28;20035;-83
2023/03/23 03:16:19;;;;;;;22.25;15.68;;;;;;;5.20;78.35;94822.25;5109822;28;20036;-84
2023/03/23 03:19:01;;;;;;;198.50;63.00;;;;;;;4.93;77.66;94796.44;5054562;28;20456;-84
2023/03/23 03:21:28;;;;;;;59.25;26.83;;;;;;;5.03;76.93;94830.19;5056732;28;20037;-83
2023/03/23 03:23:56;;;;;;;31.52;18.25;;;;;;;4.80;77.10;94823.84;5058912;28;20059;-83
2023/03/23 03:26:21;;;;;;;34.47;17.00;;;;;;;4.31;77.79;94799.25;5109945;28;20039;-83
2023/03/23 03:28:50;;;;;;;22.75;15.63;;;;;;;4.54;78.09;94815.94;5110069;28;20059;-83
2023/03/23 03:31:17;;;;;;;23.95;18.17;;;;;;;4.55;78.10;94834.78;5109563;28;20036;-83
2023/03/23 03:33:43;;;;;;;23.58;15.32;;;;;;;4.31;78.88;94816.44;5110129;28;20036;-83
2023/03/23 03:36:13;;;;;;;27.95;15.73;;;;;;;4.22;79.29;94821.22;5110485;28;20109;-84
2023/03/23 03:38:46;;;;;;;43.07;17.60;;;;;;;4.24;79.49;94813.41;5092000;28;20032;-84
2023/03/23 03:41:12;;;;;;;21.65;15.43;;;;;;;4.20;79.63;94825.59;5125813;27;20289;-82
2023/03/23 03:43:37;;;;;;;32.15;17.85;;;;;;;4.01;80.19;94805.28;5109268;28;20059;-83
2023/03/23 03:46:03;;;;;;;26.08;16.63;;;;;;;3.91;80.45;94817.00;5126984;27;20051;-83
2023/03/23 03:48:29;;;;;;;27.65;15.25;;;;;;;3.92;79.89;94834.06;5129651;27;20032;-83
2023/03/23 03:50:56;;;;;;;21.17;14.40;;;;;;;3.90;80.46;94824.78;5111430;28;20031;-84
2023/03/23 03:53:25;;;;;;;24.70;15.75;;;;;;;3.94;80.80;94828.84;5112596;28;20063;-83
2023/03/23 03:55:55;;;;;;;21.27;14.57;;;;;;;3.75;81.38;94811.06;5078945;28;20028;-83
2023/03/23 03:58:21;;;;;;;22.42;14.90;;;;;;;3.80;81.56;94829.63;5129125;27;20027;-84
2023/03/23 04:00:47;;;;;;;25.35;16.33;;;;;;;3.86;81.69;94829.28;5112062;28;20042;-83
2023/03/23 04:03:13;;;;;;;32.72;19.92;;;;;;;3.63;81.58;94807.44;5129384;27;20027;-83
2023/03/23 04:05:40;;;;;;;25.90;16.67;;;;;;;3.81;80.19;94824.38;5129227;27;20138;-84
2023/03/23 04:08:05;;;;;;;27.42;16.35;;;;;;;3.72;80.69;94816.38;5106001;28;20516;-83
2023/03/23 04:10:32;;;;;;;27.17;16.05;;;;;;;3.56;80.76;94804.38;5125947;27;20036;-83
2023/03/23 04:12:57;;;;;;;30.60;19.80;;;;;;;3.67;80.64;94814.06;5126584;27;20031;-82
2023/03/23 04:15:23;;;;;;;31.00;20.65;;;;;;;3.69;80.73;94821.69;5111409;28;20507;-84
2023/03/23 04:17:49;;;;;;;27.52;16.77;;;;;;;3.68;80.42;94809.75;5113330;28;20035;-83
2023/03/23 04:20:17;;;;;;;22.83;14.57;;;;;;;3.74;78.61;94819.69;5095986;28;20034;-83
2023/03/23 04:22:48;;;;;;;22.27;14.75;;;;;;;3.56;79.08;94806.94;5112043;28;20032;-83
2023/03/23 04:25:15;;;;;;;21.35;14.93;;;;;;;3.41;79.75;94797.53;5078904;28;20401;-83
2023/03/23 04:27:43;;;;;;;22.98;15.38;;;;;;;2.67;80.31;94682.63;5096499;28;20087;-84
2023/03/23 04:30:09;;;;;;;25.35;16.25;;;;;;;3.44;80.29;94814.50;5129861;27;20504;-85
2023/03/23 04:32:35;;;;;;;20.38;13.85;;;;;;;3.53;81.08;94808.84;5111809;28;20077;-84
2023/03/23 04:35:01;;;;;;;16.00;10.18;;;;;;;3.80;82.52;94820.16;5094617;28;20481;-79
2023/03/23 04:37:28;;;;;;;20.10;9.35;;;;;;;3.83;83.21;94813.22;5111440;28;20037;-78
2023/03/23 04:40:00;;;;;;;15.95;8.93;;;;;;;3.71;83.59;94756.44;5094905;28;20031;-78
2023/03/23 04:42:30;;;;;;;11.30;7.68;;;;;;;4.12;83.55;94803.81;5111441;28;20047;-78
2023/03/23 04:44:56;;;;;;;12.98;8.93;;;;;;;4.21;83.50;94818.75;5128661;27;20046;-78
2023/03/23 04:47:22;;;;;;;12.82;7.97;;;;;;;4.22;82.95;94805.78;5128765;27;20040;-78
2023/03/23 04:49:48;;;;;;;11.18;6.97;;;;;;;4.37;82.63;94816.91;5111169;28;20046;-78
2023/03/23 04:52:13;;;;;;;11.50;7.15;;;;;;;4.38;82.24;94818.59;5110810;28;20035;-79
2023/03/23 04:54:39;;;;;;;10.60;7.43;;;;;;;4.45;81.97;94827.56;5107539;28;20035;-79
2023/03/23 04:57:05;;;;;;;10.55;7.30;;;;;;;4.50;81.69;94813.63;5092079;28;20081;-79
2023/03/23 04:59:30;;;;;;;11.43;7.75;;;;;;;4.59;81.78;94823.38;5107762;28;20052;-79
2023/03/23 05:01:56;;;;;;;9.57;6.47;;;;;;;4.69;80.96;94822.75;5107639;28;20032;-79
2023/03/23 05:04:22;;;;;;;11.10;7.70;;;;;;;4.75;80.62;94806.09;5124323;27;20048;-79
2023/03/23 05:06:48;;;;;;;10.38;7.03;;;;;;;4.91;80.60;94832.56;5090374;28;20123;-80
2023/03/23 05:09:13;;;;;;;11.25;7.57;;;;;;;5.03;80.63;94835.34;5107660;28;20397;-80
2023/03/23 05:11:39;;;;;;;10.48;7.18;;;;;;;5.09;80.76;94840.09;5090144;28;20039;-79
2023/03/23 05:14:05;;;;;;;12.50;7.88;;;;;;;5.14;80.52;94845.81;5090323;28;20024;-80
2023/03/23 05:16:30;;;;;;;11.32;7.53;;;;;;;5.22;80.74;94848.75;5124213;27;20469;-79
2023/03/23 05:18:57;;;;;;;11.02;7.88;;;;;;;5.16;80.66;94823.38;5073319;28;20020;-79
2023/03/23 05:21:23;;;;;;;9.82;7.65;;;;;;;5.53;79.41;94839.13;5124411;27;20024;-79
2023/03/23 05:23:54;;;;;;;11.65;8.18;;;;;;;5.61;79.74;94839.47;5106974;28;20047;-77
2023/03/23 05:26:21;;;;;;;11.00;7.68;;;;;;;5.74;79.17;94842.94;5106745;28;20039;-79
2023/03/23 05:28:48;;;;;;;10.57;7.63;;;;;;;5.67;78.71;94839.06;5073012;28;20052;-77
2023/03/23 05:31:13;;;;;;;10.98;7.80;;;;;;;5.71;78.68;94832.81;5095234;28;20062;-78
2023/03/23 05:33:38;;;;;;;17.98;13.90;;;;;;;5.77;78.83;94850.47;5144531;27;20465;-78
2023/03/23 05:36:06;;;;;;;20.38;16.05;;;;;;;5.47;79.10;94850.63;5110466;28;20108;-80
2023/03/23 05:38:32;;;;;;;24.65;17.40;;;;;;;5.57;78.86;94848.28;5093183;28;20123;-80
2023/03/23 05:41:01;;;;;;;24.80;17.95;;;;;;;5.53;78.92;94864.88;5110058;28;20103;-80
2023/03/23 05:43:27;;;;;;;26.70;19.45;;;;;;;5.50;78.83;94873.63;5092919;28;20028;-80
2023/03/23 05:45:52;;;;;;;26.10;18.75;;;;;;;5.41;78.49;94856.16;5093280;28;20420;-80
2023/03/23 05:48:18;;;;;;;35.85;24.73;;;;;;;5.47;78.15;94873.00;5110124;28;20501;-80
2023/03/23 05:50:43;;;;;;;32.22;22.35;;;;;;;5.52;78.06;94881.28;5109687;28;20120;-80
2023/03/23 05:53:09;;;;;;;35.78;25.20;;;;;;;5.50;78.07;94891.66;5089532;28;20032;-80
2023/03/23 05:55:35;;;;;;;38.50;24.58;;;;;;;5.52;78.36;94886.44;5125288;27;20032;-79
2023/03/23 05:58:00;;;;;;;29.30;22.15;;;;;;;5.56;78.30;94887.88;5108669;28;20069;-80
2023/03/23 06:00:28;;;;;;;30.83;21.05;;;;;;;5.65;78.35;94879.56;5093033;28;20493;-81
2023/03/23 06:02:56;;;;;;;25.80;18.92;;;;;;;5.74;77.51;94865.28;5116583;28;20027;-80
2023/03/23 06:05:22;;;;;;;26.27;19.75;;;;;;;5.66;77.59;94842.59;5116523;28;20118;-80
2023/03/23 06:07:47;;;;;;;29.55;21.88;;;;;;;5.90;77.83;94880.63;5115733;27;20039;-81
2023/03/23 06:10:13;;;;;;;31.60;22.65;;;;;;;5.82;77.59;94876.78;5100769;28;20024;-81
2023/03/23 06:12:39;;;;;;;70.10;32.83;;;;;;;5.75;77.41;94888.41;5099649;28;20032;-80
2023/03/23 06:15:06;;;;;;;47.55;27.40;;;;;;;5.90;77.20;94875.47;5116867;27;20055;-80
2023/03/23 06:17:32;;;;;;;37.35;24.63;;;;;;;6.57;75.90;94860.78;5112884;27;20031;-80
2023/03/23 06:19:58;;;;;;;38.45;24.77;;;;;;;6.42;77.05;94877.31;5101777;28;20101;-80
2023/03/23 06:22:23;;;;;;;26.30;19.30;;;;;;;7.77;73.60;94883.63;5115288;28;20115;-80
2023/03/23 06:24:49;;;;;;;27.40;19.52;;;;;;;7.90;72.93;94886.16;5116855;27;20065;-81
2023/03/23 06:27:16;;;;;;;28.50;20.00;;;;;;;8.27;71.45;94881.75;5099591;28;20119;-81
2023/03/23 06:29:41;;;;;;;26.33;17.88;;;;;;;9.03;68.43;94883.06;5099796;28;20071;-81
2023/03/23 06:32:07;;;;;;;27.45;19.13;;;;;;;9.10;66.28;94863.50;5099666;28;20027;-81
2023/03/23 06:34:32;;;;;;;32.05;19.17;;;;;;;8.94;67.49;94889.78;5149187;27;20043;-82
2023/03/23 06:36:58;;;;;;;20.52;15.93;;;;;;;8.77;67.05;94866.06;5113947;27;20031;-81
2023/03/23 06:39:24;;;;;;;19.90;15.13;;;;;;;8.57;67.90;94889.09;5111271;27;20107;-81
2023/03/23 06:41:49;;;;;;;21.48;15.35;;;;;;;8.91;67.58;94887.41;5118131;27;20115;-80
2023/03/23 06:44:15;;;;;;;22.70;16.60;;;;;;;8.73;67.86;94896.56;5107636;28;20419;-81
2023/03/23 06:46:41;;;;;;;24.88;16.70;;;;;;;8.70;67.88;94896.78;5116256;28;20485;-81
2023/03/23 06:49:06;;;;;;;25.77;17.58;;;;;;;8.67;67.83;94902.19;5128367;27;20035;-81
2023/03/23 06:51:32;;;;;;;25.33;16.98;;;;;;;8.55;67.42;94872.81;5131182;27;20035;-80
2023/03/23 06:53:57;;;;;;;25.33;18.52;;;;;;;8.66;67.58;94901.38;5115099;27;20036;-81
2023/03/23 06:56:23;;;;;;;25.63;19.40;;;;;;;8.58;68.45;94906.28;5114977;28;20126;-86
2023/03/23 06:58:49;;;;;;;22.08;17.05;;;;;;;8.90;67.92;94903.88;5082816;28;20118;-78
2023/03/23 07:01:15;;;;;;;22.50;16.63;;;;;;;8.72;67.38;94884.56;5115536;28;20028;-79
2023/03/23 07:03:41;;;;;;;22.67;17.27;;;;;;;8.83;66.87;94861.25;5114420;27;20047;-86
2023/03/23 07:06:07;;;;;;;24.17;17.10;;;;;;;9.11;66.67;94908.38;5097677;28;20035;-79
2023/03/23 07:08:36;;;;;;;24.35;18.63;;;;;;;9.04;66.49;94913.22;5082454;28;20035;-78
2023/03/23 07:11:02;;;;;;;25.90;18.10;;;;;;;9.33;66.30;94898.06;5098940;27;20481;-81
2023/03/23 07:13:27;;;;;;;24.98;18.40;;;;;;;9.83;65.06;94903.69;5094144;28;20558;-81
2023/03/23 07:15:53;;;;;;;23.40;16.83;;;;;;;9.82;64.24;94894.25;5093561;28;20028;-80
2023/03/23 07:18:18;;;;;;;28.33;20.45;;;;;;;10.06;63.72;94882.88;5095930;28;20084;-83
2023/03/23 07:20:48;;;;;;;21.88;17.55;;;;;;;10.51;62.34;94893.16;5111824;27;20096;-80
2023/03/23 07:23:14;;;;;;;20.38;16.48;;;;;;;10.72;62.67;94899.16;5075243;28;20036;-83
2023/03/23 07:25:40;;;;;;;26.17;19.98;;;;;;;11.00;61.41;94899.50;5104809;28;20107;-83
2023/03/23 07:28:06;;;;;;;26.70;18.70;;;;;;;10.82;61.08;94914.03;5101571;28;20027;-83
2023/03/23 07:30:31;;;;;;;23.67;18.33;;;;;;;10.86;61.59;94897.22;5092369;28;20032;-83
2023/03/23 07:32:57;;;;;;;25.80;17.05;;;;;;;10.81;61.64;94900.22;5075460;28;20088;-82
2023/03/23 07:35:23;;;;;;;22.77;16.65;;;;;;;10.38;62.64;94895.91;5096794;28;20058;-83
2023/03/23 07:37:49;;;;;;;24.33;18.10;;;;;;;10.96;62.37;94895.50;5088733;28;20024;-83
2023/03/23 07:40:15;;;;;;;21.52;16.40;;;;;;;11.18;61.50;94889.34;5074668;28;20409;-82
2023/03/23 07:42:42;;;;;;;24.42;18.00;;;;;;;11.38;61.15;94901.47;5108930;28;20228;-81
2023/03/23 07:45:08;;;;;;;21.50;17.23;;;;;;;11.41;61.65;94900.41;5090388;28;20028;-82
2023/03/23 07:47:34;;;;;;;21.83;18.25;;;;;;;11.74;61.60;94907.13;5089508;28;20046;-81
2023/03/23 07:49:59;;;;;;;23.33;18.73;;;;;;;11.88;59.74;94897.34;5107494;28;20107;-82
2023/03/23 07:52:25;;;;;;;24.48;18.60;;;;;;;12.06;59.41;94912.19;5072187;28;20609;-81
2023/03/23 07:54:50;;;;;;;23.48;18.52;;;;;;;12.16;59.15;94921.78;5109092;28;20032;-82
2023/03/23 07:57:16;;;;;;;22.55;17.45;;;;;;;12.03;58.79;94880.38;5089444;28;20512;-81
2023/03/23 07:59:41;;;;;;;22.92;18.48;;;;;;;12.41;58.38;94904.81;5108754;28;20536;-81
2023/03/23 08:02:09;;;;;;;21.75;16.88;;;;;;;12.50;57.91;94898.78;5107893;28;20042;-82
2023/03/23 08:04:37;;;;;;;20.38;16.63;;;;;;;12.78;58.35;94911.97;5091496;28;20505;-81
2023/03/23 08:07:04;;;;;;;22.73;17.13;;;;;;;12.71;58.13;94901.28;5073971;28;20551;-82
2023/03/23 08:09:30;;;;;;;22.15;16.55;;;;;;;12.83;57.14;94907.97;5109046;28;20035;-81
2023/03/23 08:11:55;;;;;;;18.33;15.68;;;;;;;13.16;55.89;94913.72;5107212;28;20043;-81
2023/03/23 08:14:21;;;;;;;20.05;16.08;;;;;;;13.17;55.92;94913.53;5105858;28;20043;-81
2023/03/23 08:16:48;;;;;;;17.58;14.27;;;;;;;13.32;55.54;94921.81;5085965;28;20020;-80
2023/03/23 08:19:13;;;;;;;20.05;14.85;;;;;;;13.38;54.58;94921.25;5073563;28;20043;-81
2023/03/23 08:21:39;;;;;;;17.77;14.35;;;;;;;13.57;54.79;94919.53;5089890;28;20081;-81
2023/03/23 08:24:05;;;;;;;16.23;13.13;;;;;;;13.19;52.43;94877.72;5107796;28;20477;-80
2023/03/23 08:26:30;;;;;;;16.95;12.18;;;;;;;13.62;51.25;94917.31;5106113;28;20027;-80
2023/03/23 08:28:57;;;;;;;12.35;9.40;;;;;;;13.47;50.34;94900.47;5104165;28;20063;-81
2023/03/23 08:31:23;;;;;;;14.60;11.50;;;;;;;13.80;50.52;94914.78;5093751;28;20023;-81
2023/03/23 08:33:48;;;;;;;16.92;12.40;;;;;;;13.40;53.20;94921.09;5111365;28;20433;-81
2023/03/23 08:36:14;;;;;;;13.25;10.93;;;;;;;13.53;51.00;94913.75;5111371;28;20420;-81
2023/03/23 08:38:39;;;;;;;14.48;10.48;;;;;;;13.37;50.42;94918.75;5112737;28;20530;-81
2023/03/23 08:41:05;;;;;;;14.70;10.10;;;;;;;13.17;50.28;94913.53;5093795;28;20024;-81
2023/03/23 08:43:34;;;;;;;12.18;9.90;;;;;;;12.91;50.10;94912.50;5094193;28;20118;-80
2023/03/23 08:46:00;;;;;;;12.32;9.23;;;;;;;13.27;49.76;94910.16;5111267;28;20037;-80
2023/03/23 08:48:25;;;;;;;14.07;10.73;;;;;;;13.51;50.40;94899.22;5077089;28;20478;-80
2023/03/23 08:50:51;;;;;;;12.57;9.82;;;;;;;13.72;49.28;94902.44;5077189;28;20036;-80
2023/03/23 08:53:18;;;;;;;13.68;10.60;;;;;;;13.81;49.86;94898.13;5094167;28;20043;-80
2023/03/23 08:55:43;;;;;;;14.48;10.30;;;;;;;13.82;49.15;94910.25;5093240;28;20039;-80
2023/03/23 08:58:09;;;;;;;10.57;8.65;;;;;;;13.86;47.59;94907.19;5076259;28;20123;-80
2023/03/23 09:00:35;;;;;;;9.55;7.13;;;;;;;14.19;46.28;94911.97;5093651;28;20031;-80
2023/03/23 09:03:01;;;;;;;9.20;7.65;;;;;;;14.44;47.18;94898.19;5076957;28;20023;-80
2023/03/23 09:05:27;;;;;;;10.05;7.35;;;;;;;14.38;46.32;94908.41;5093386;28;20126;-81
2023/03/23 09:07:54;;;;;;;9.70;8.00;;;;;;;14.08;47.25;94898.13;5094003;28;20108;-80
2023/03/23 09:10:20;;;;;;;9.88;7.40;;;;;;;14.30;47.05;94912.56;5093759;28;20066;-80
2023/03/23 09:12:46;;;;;;;6.82;5.60;;;;;;;14.00;43.99;94915.50;5094081;28;20477;-79
2023/03/23 09:15:13;;;;;;;6.57;5.43;;;;;;;14.22;41.68;94904.66;5076611;28;20028;-79
2023/03/23 09:17:41;;;;;;;7.50;5.68;;;;;;;14.33;41.87;94900.19;5093791;28;20038;-80
2023/03/23 09:20:16;;;;;;;7.25;5.07;;;;;;;14.30;42.23;94901.31;5093763;28;20102;-80
2023/03/23 09:22:45;;;;;;;6.95;5.40;;;;;;;14.30;40.72;94891.66;5072767;28;20127;-80
2023/03/23 09:25:14;;;;;;;8.23;5.88;;;;;;;14.35;41.69;94882.56;5105574;28;20027;-79
2023/03/23 09:27:41;;;;;;;7.35;5.30;;;;;;;14.47;42.87;94904.91;5072511;28;20028;-79
2023/03/23 09:30:10;;;;;;;6.75;5.50;;;;;;;14.24;41.83;94896.69;5104673;28;20031;-79
2023/03/23 09:32:39;;;;;;;7.47;5.63;;;;;;;14.13;43.36;94900.31;5073326;28;20485;-80
2023/03/23 09:35:11;;;;;;;6.47;4.90;;;;;;;14.26;43.48;94900.78;5105721;28;20047;-80
2023/03/23 09:37:40;;;;;;;8.13;5.70;;;;;;;14.20;42.92;94896.13;5105064;28;20027;-80
2023/03/23 09:40:09;;;;;;;7.18;5.30;;;;;;;14.37;42.26;94894.50;5072652;28;20032;-79
2023/03/23 09:43:12;;;;;;;7.40;5.60;;;;;;;14.36;41.33;94892.88;5090802;28;20516;-79
2023/03/23 09:45:52;;;;;;;6.72;5.22;;;;;;;14.42;43.21;94886.22;5104636;28;20035;-79
2023/03/23 09:48:54;;;;;;;8.57;5.88;;;;;;;14.58;42.92;94894.25;5090848;28;20114;-79
2023/03/23 09:51:38;;;;;;;9.38;6.90;;;;;;;14.50;42.83;94892.34;5096273;28;20047;-79
2023/03/23 09:54:27;;;;;;;8.38;6.45;;;;;;;14.38;42.05;94871.84;5106501;28;20032;-79
2023/03/23 09:56:52;;;;;;;6.97;5.65;;;;;;;14.58;42.41;94881.19;5074297;28;20035;-79
2023/03/23 09:59:20;;;;;;;8.38;6.05;;;;;;;14.51;41.54;94882.72;5080902;28;20091;-80
2023/03/23 10:01:51;;;;;;;7.80;6.32;;;;;;;14.44;42.55;94871.22;5109262;28;20180;-79
2023/03/23 10:04:38;;;;;;;9.38;6.50;;;;;;;14.46;42.78;94880.56;5123003;27;20151;-79
2023/03/23 10:07:12;;;;;;;7.55;6.00;;;;;;;14.09;42.38;94878.88;5108193;28;20036;-79
2023/03/23 10:09:37;;;;;;;7.97;6.20;;;;;;;13.82;43.17;94873.69;5091731;28;20035;-79
2023/03/23 10:12:06;;;;;;;7.47;6.05;;;;;;;13.33;44.44;94875.66;5076376;28;20040;-79
2023/03/23 10:14:50;;;;;;;8.10;5.72;;;;;;;13.60;44.01;94878.31;5091274;28;20027;-79
2023/03/23 10:17:51;;;;;;;7.40;5.72;;;;;;;13.82;43.11;94855.41;5109182;28;20044;-79
2023/03/23 10:20:38;;;;;;;7.18;5.57;;;;;;;13.81;43.81;94866.81;5093103;28;20028;-79
2023/03/23 10:23:19;;;;;;;7.07;5.45;;;;;;;14.00;43.89;94866.69;5108165;28;20042;-79
2023/03/23 10:26:02;;;;;;;8.40;6.75;;;;;;;14.02;42.43;94869.19;5109163;28;20027;-81
2023/03/23 10:28:43;;;;;;;10.00;6.50;;;;;;;14.02;43.96;94866.56;5091348;28;20629;-78
2023/03/23 10:31:13;;;;;;;9.10;6.07;;;;;;;14.05;43.03;94867.09;5107812;28;20405;-79
2023/03/23 10:33:44;;;;;;;9.60;6.18;;;;;;;14.01;43.22;94857.06;5092532;28;20032;-79
2023/03/23 10:36:33;;;;;;;9.55;5.93;;;;;;;14.15;43.94;94860.97;5093102;28;20042;-85
2023/03/23 10:39:05;;;;;;;8.18;6.18;;;;;;;14.21;41.97;94858.59;5110943;28;20047;-79
2023/03/23 10:41:31;;;;;;;7.25;5.75;;;;;;;14.34;42.28;94852.19;5109782;28;20028;-79
2023/03/23 10:43:57;;;;;;;8.63;6.65;;;;;;;13.80;43.88;94769.38;5110774;28;20432;-79
2023/03/23 10:46:35;;;;;;;7.78;6.20;;;;;;;14.23;43.47;94858.44;5092310;28;20028;-79
2023/03/23 10:49:02;;;;;;;8.32;6.88;;;;;;;14.14;43.09;94818.34;5112095;28;20058;-79
2023/03/23 10:51:34;;;;;;;8.07;6.30;;;;;;;14.23;43.46;94835.75;5079994;28;20040;-79
2023/03/23 10:54:01;;;;;;;8.88;7.18;;;;;;;14.13;42.39;94832.41;5113683;28;20030;-79
2023/03/23 10:56:27;;;;;;;9.00;6.65;;;;;;;14.18;42.58;94858.91;5096870;28;20035;-79
2023/03/23 10:58:53;;;;;;;7.78;6.03;;;;;;;14.20;43.24;94848.28;5114565;28;20482;-79
2023/03/23 11:01:19;;;;;;;8.95;6.90;;;;;;;14.11;42.93;94865.66;5130657;27;20482;-79
2023/03/23 11:03:48;;;;;;;9.02;6.68;;;;;;;13.90;41.91;94858.13;5096212;28;20055;-79
2023/03/23 11:06:45;;;;;;;8.55;6.35;;;;;;;14.20;42.72;94859.56;5113531;28;20089;-79
2023/03/23 11:09:18;;;;;;;8.68;6.63;;;;;;;14.00;42.51;94837.16;5088233;28;20487;-79
2023/03/23 11:11:54;;;;;;;8.55;6.10;;;;;;;13.71;44.02;94845.97;5130437;27;20046;-79
2023/03/23 11:14:25;;;;;;;9.20;6.82;;;;;;;13.48;44.55;94800.34;5130572;27;20115;-79
2023/03/23 11:16:55;;;;;;;8.32;6.40;;;;;;;13.92;43.89;94840.50;5096225;28;20118;-79
2023/03/23 11:19:31;;;;;;;9.23;6.35;;;;;;;13.82;44.03;94832.72;5114305;28;20024;-79
2023/03/23 11:22:26;;;;;;;8.20;6.18;;;;;;;13.30;43.50;94840.25;5096406;28;20039;-79
2023/03/23 11:24:54;;;;;;;8.57;6.20;;;;;;;13.61;44.26;94827.75;5113116;28;20058;-79
2023/03/23 11:27:20;;;;;;;9.00;6.50;;;;;;;13.80;44.04;94836.44;5113336;28;20075;-79
2023/03/23 11:29:53;;;;;;;8.18;6.60;;;;;;;13.80;43.55;94836.44;5112981;28;20110;-79
2023/03/23 11:32:18;;;;;;;7.57;6.18;;;;;;;14.05;44.13;94817.47;5096811;28;20110;-79
2023/03/23 11:34:45;;;;;;;8.32;6.13;;;;;;;14.21;42.85;94823.81;5112756;28;20088;-79
2023/03/23 11:37:19;;;;;;;9.00;6.72;;;;;;;14.16;42.25;94824.25;5078952;28;20528;-79
2023/03/23 11:39:56;;;;;;;7.82;5.95;;;;;;;14.25;42.87;94810.28;5114034;28;20106;-79